sensor_id;sensor_type;location;lat;lon;timestamp;P1;durP1;ratioP1;P2;durP2;ratioP2
77955;SDS011;67152;36.266;32.294;2023-05-21T00:02:14;17.27;;;9.02;;
77955;SDS011;67152;36.266;32.294;2023-05-21T00:07:08;30.73;;;14.73;;
77955;SDS011;67152;36.266;32.294;2023-05-21T00:09:35;26.27;;;14.43;;
77955;SDS011;67152;36.266;32.294;2023-05-21T00:12:04;28.92;;;14.60;;
77955;SDS011;67152;36.266;32.294;2023-05-21T00:14:31;30.88;;;16.17;;
77955;SDS011;67152;36.266;32.294;2023-05-21T00:16:58;32.70;;;16.90;;
77955;SDS011;67152;36.266;32.294;2023-05-21T00:19:24;31.60;;;16.83;;
77955;SDS011;67152;36.266;32.294;2023-05-21T00:21:52;33.38;;;17.02;;
77955;SDS011;67152;36.266;32.294;2023-05-21T00:24:19;29.85;;;15.55;;
77955;SDS011;67152;36.266;32.294;2023-05-21T00:26:46;30.95;;;15.25;;
77955;SDS011;67152;36.266;32.294;2023-05-21T00:29:12;18.67;;;10.15;;
77955;SDS011;67152;36.266;32.294;2023-05-21T00:31:39;21.23;;;9.85;;
77955;SDS011;67152;36.266;32.294;2023-05-21T00:34:05;20.77;;;9.90;;
77955;SDS011;67152;36.266;32.294;2023-05-21T00:36:32;17.20;;;8.13;;
77955;SDS011;67152;36.266;32.294;2023-05-21T00:38:59;17.73;;;8.68;;
77955;SDS011;67152;36.266;32.294;2023-05-21T00:43:54;17.48;;;8.18;;
77955;SDS011;67152;36.266;32.294;2023-05-21T00:46:22;17.35;;;8.93;;
77955;SDS011;67152;36.266;32.294;2023-05-21T00:48:49;23.55;;;11.90;;
77955;SDS011;67152;36.266;32.294;2023-05-21T00:51:16;19.50;;;13.10;;
77955;SDS011;67152;36.266;32.294;2023-05-21T00:56:09;28.27;;;13.20;;
77955;SDS011;67152;36.266;32.294;2023-05-21T00:58:36;23.63;;;13.57;;
77955;SDS011;67152;36.266;32.294;2023-05-21T01:01:04;24.83;;;14.10;;
77955;SDS011;67152;36.266;32.294;2023-05-21T01:03:31;25.20;;;14.15;;
77955;SDS011;67152;36.266;32.294;2023-05-21T01:06:03;34.70;;;15.52;;
77955;SDS011;67152;36.266;32.294;2023-05-21T01:08:31;26.40;;;16.65;;
77955;SDS011;67152;36.266;32.294;2023-05-21T01:11:00;37.45;;;16.67;;
77955;SDS011;67152;36.266;32.294;2023-05-21T01:13:27;25.88;;;15.27;;
77955;SDS011;67152;36.266;32.294;2023-05-21T01:15:54;43.13;;;16.33;;
77955;SDS011;67152;36.266;32.294;2023-05-21T01:18:22;24.50;;;13.60;;
77955;SDS011;67152;36.266;32.294;2023-05-21T01:20:49;24.93;;;14.70;;
77955;SDS011;67152;36.266;32.294;2023-05-21T01:25:43;33.47;;;15.02;;
77955;SDS011;67152;36.266;32.294;2023-05-21T01:28:10;25.50;;;14.43;;
77955;SDS011;67152;36.266;32.294;2023-05-21T01:30:38;24.98;;;13.48;;
77955;SDS011;67152;36.266;32.294;2023-05-21T01:33:14;29.58;;;14.95;;
77955;SDS011;67152;36.266;32.294;2023-05-21T01:35:46;31.92;;;15.90;;
77955;SDS011;67152;36.266;32.294;2023-05-21T01:38:19;27.52;;;14.63;;
77955;SDS011;67152;36.266;32.294;2023-05-21T01:43:17;20.33;;;7.82;;
77955;SDS011;67152;36.266;32.294;2023-05-21T01:45:45;25.42;;;11.10;;
77955;SDS011;67152;36.266;32.294;2023-05-21T01:50:39;20.33;;;11.85;;
77955;SDS011;67152;36.266;32.294;2023-05-21T01:53:06;27.63;;;13.23;;
77955;SDS011;67152;36.266;32.294;2023-05-21T01:55:32;31.95;;;17.08;;
77955;SDS011;67152;36.266;32.294;2023-05-21T01:58:00;32.40;;;19.25;;
77955;SDS011;67152;36.266;32.294;2023-05-21T02:00:27;32.30;;;17.38;;
77955;SDS011;67152;36.266;32.294;2023-05-21T02:02:54;31.42;;;16.50;;
77955;SDS011;67152;36.266;32.294;2023-05-21T02:05:21;27.15;;;15.02;;
77955;SDS011;67152;36.266;32.294;2023-05-21T02:07:48;33.75;;;14.60;;
77955;SDS011;67152;36.266;32.294;2023-05-21T02:10:16;29.98;;;15.52;;
77955;SDS011;67152;36.266;32.294;2023-05-21T02:12:43;26.67;;;14.45;;
77955;SDS011;67152;36.266;32.294;2023-05-21T02:15:10;26.30;;;14.00;;
77955;SDS011;67152;36.266;32.294;2023-05-21T02:17:38;31.80;;;13.82;;
77955;SDS011;67152;36.266;32.294;2023-05-21T02:20:07;24.85;;;12.95;;
77955;SDS011;67152;36.266;32.294;2023-05-21T02:22:40;24.80;;;11.07;;
77955;SDS011;67152;36.266;32.294;2023-05-21T02:25:10;18.23;;;9.75;;
77955;SDS011;67152;36.266;32.294;2023-05-21T02:30:05;21.08;;;11.27;;
77955;SDS011;67152;36.266;32.294;2023-05-21T02:32:33;18.13;;;9.38;;
77955;SDS011;67152;36.266;32.294;2023-05-21T02:35:00;22.63;;;8.77;;
77955;SDS011;67152;36.266;32.294;2023-05-21T02:37:28;14.48;;;7.55;;
77955;SDS011;67152;36.266;32.294;2023-05-21T02:39:58;10.90;;;6.90;;
77955;SDS011;67152;36.266;32.294;2023-05-21T02:44:52;16.80;;;6.88;;
77955;SDS011;67152;36.266;32.294;2023-05-21T02:47:19;12.37;;;7.07;;
77955;SDS011;67152;36.266;32.294;2023-05-21T02:49:45;17.25;;;6.78;;
77955;SDS011;67152;36.266;32.294;2023-05-21T02:52:12;15.18;;;6.55;;
77955;SDS011;67152;36.266;32.294;2023-05-21T02:54:38;15.43;;;7.82;;
77955;SDS011;67152;36.266;32.294;2023-05-21T02:57:05;18.00;;;7.35;;
77955;SDS011;67152;36.266;32.294;2023-05-21T02:59:31;14.57;;;6.45;;
77955;SDS011;67152;36.266;32.294;2023-05-21T03:01:58;9.77;;;5.50;;
77955;SDS011;67152;36.266;32.294;2023-05-21T03:04:24;26.10;;;7.15;;
77955;SDS011;67152;36.266;32.294;2023-05-21T03:06:53;14.73;;;6.80;;
77955;SDS011;67152;36.266;32.294;2023-05-21T03:09:20;12.48;;;7.45;;
77955;SDS011;67152;36.266;32.294;2023-05-21T03:11:49;15.38;;;7.30;;
77955;SDS011;67152;36.266;32.294;2023-05-21T03:14:19;12.55;;;7.20;;
77955;SDS011;67152;36.266;32.294;2023-05-21T03:16:45;13.93;;;7.50;;
77955;SDS011;67152;36.266;32.294;2023-05-21T03:19:13;21.20;;;7.32;;
77955;SDS011;67152;36.266;32.294;2023-05-21T03:21:40;16.40;;;7.50;;
77955;SDS011;67152;36.266;32.294;2023-05-21T03:24:07;12.45;;;6.30;;
77955;SDS011;67152;36.266;32.294;2023-05-21T03:26:34;13.47;;;6.60;;
77955;SDS011;67152;36.266;32.294;2023-05-21T03:29:01;17.80;;;7.22;;
77955;SDS011;67152;36.266;32.294;2023-05-21T03:31:27;15.10;;;7.07;;
77955;SDS011;67152;36.266;32.294;2023-05-21T03:33:53;20.58;;;7.18;;
77955;SDS011;67152;36.266;32.294;2023-05-21T03:36:20;18.23;;;6.57;;
77955;SDS011;67152;36.266;32.294;2023-05-21T03:38:47;18.52;;;6.30;;
77955;SDS011;67152;36.266;32.294;2023-05-21T03:41:13;14.45;;;5.40;;
77955;SDS011;67152;36.266;32.294;2023-05-21T03:43:40;14.27;;;5.90;;
77955;SDS011;67152;36.266;32.294;2023-05-21T03:46:06;11.60;;;6.30;;
77955;SDS011;67152;36.266;32.294;2023-05-21T03:48:33;12.00;;;5.65;;
77955;SDS011;67152;36.266;32.294;2023-05-21T03:50:59;20.88;;;6.10;;
77955;SDS011;67152;36.266;32.294;2023-05-21T03:53:26;17.20;;;5.77;;
77955;SDS011;67152;36.266;32.294;2023-05-21T03:55:52;11.45;;;6.05;;
77955;SDS011;67152;36.266;32.294;2023-05-21T03:58:22;18.00;;;5.63;;
77955;SDS011;67152;36.266;32.294;2023-05-21T04:00:49;11.10;;;4.85;;
77955;SDS011;67152;36.266;32.294;2023-05-21T04:03:15;13.03;;;4.80;;
77955;SDS011;67152;36.266;32.294;2023-05-21T04:05:43;14.98;;;5.22;;
77955;SDS011;67152;36.266;32.294;2023-05-21T04:08:09;13.10;;;4.40;;
77955;SDS011;67152;36.266;32.294;2023-05-21T04:10:54;12.88;;;5.30;;
77955;SDS011;67152;36.266;32.294;2023-05-21T04:13:21;10.43;;;4.60;;
77955;SDS011;67152;36.266;32.294;2023-05-21T04:15:47;12.43;;;4.65;;
77955;SDS011;67152;36.266;32.294;2023-05-21T04:18:14;9.40;;;4.40;;
77955;SDS011;67152;36.266;32.294;2023-05-21T04:20:45;9.98;;;5.18;;
77955;SDS011;67152;36.266;32.294;2023-05-21T04:23:11;12.82;;;5.40;;
77955;SDS011;67152;36.266;32.294;2023-05-21T04:25:38;15.07;;;5.23;;
77955;SDS011;67152;36.266;32.294;2023-05-21T04:28:04;14.98;;;5.43;;
77955;SDS011;67152;36.266;32.294;2023-05-21T04:30:31;8.30;;;5.35;;
77955;SDS011;67152;36.266;32.294;2023-05-21T04:33:01;10.40;;;4.88;;
77955;SDS011;67152;36.266;32.294;2023-05-21T04:38:12;11.55;;;4.55;;
77955;SDS011;67152;36.266;32.294;2023-05-21T04:40:53;12.05;;;4.88;;
77955;SDS011;67152;36.266;32.294;2023-05-21T04:43:20;13.00;;;4.40;;
77955;SDS011;67152;36.266;32.294;2023-05-21T04:45:51;13.38;;;4.50;;
77955;SDS011;67152;36.266;32.294;2023-05-21T04:48:20;17.25;;;4.55;;
77955;SDS011;67152;36.266;32.294;2023-05-21T04:50:49;17.95;;;4.63;;
77955;SDS011;67152;36.266;32.294;2023-05-21T04:53:16;9.07;;;4.38;;
77955;SDS011;67152;36.266;32.294;2023-05-21T04:55:43;6.15;;;3.78;;
77955;SDS011;67152;36.266;32.294;2023-05-21T04:58:09;7.85;;;3.95;;
77955;SDS011;67152;36.266;32.294;2023-05-21T05:00:39;10.75;;;4.00;;
77955;SDS011;67152;36.266;32.294;2023-05-21T05:03:06;10.50;;;4.15;;
77955;SDS011;67152;36.266;32.294;2023-05-21T05:05:33;11.77;;;3.72;;
77955;SDS011;67152;36.266;32.294;2023-05-21T05:10:27;14.65;;;4.85;;
77955;SDS011;67152;36.266;32.294;2023-05-21T05:12:53;10.40;;;4.25;;
77955;SDS011;67152;36.266;32.294;2023-05-21T05:15:20;13.30;;;4.07;;
77955;SDS011;67152;36.266;32.294;2023-05-21T05:17:46;10.13;;;4.28;;
77955;SDS011;67152;36.266;32.294;2023-05-21T05:20:15;13.45;;;3.97;;
77955;SDS011;67152;36.266;32.294;2023-05-21T05:22:41;17.58;;;4.20;;
77955;SDS011;67152;36.266;32.294;2023-05-21T05:25:08;10.65;;;4.00;;
77955;SDS011;67152;36.266;32.294;2023-05-21T05:27:35;8.38;;;3.92;;
77955;SDS011;67152;36.266;32.294;2023-05-21T05:30:02;8.88;;;3.85;;
77955;SDS011;67152;36.266;32.294;2023-05-21T05:32:29;13.75;;;4.47;;
77955;SDS011;67152;36.266;32.294;2023-05-21T05:34:56;12.43;;;3.90;;
77955;SDS011;67152;36.266;32.294;2023-05-21T05:37:23;10.20;;;3.90;;
77955;SDS011;67152;36.266;32.294;2023-05-21T05:39:51;10.57;;;4.07;;
77955;SDS011;67152;36.266;32.294;2023-05-21T05:42:18;12.13;;;4.30;;
77955;SDS011;67152;36.266;32.294;2023-05-21T05:47:29;10.93;;;4.70;;
77955;SDS011;67152;36.266;32.294;2023-05-21T05:52:23;14.85;;;5.45;;
77955;SDS011;67152;36.266;32.294;2023-05-21T05:55:11;16.23;;;5.72;;
77955;SDS011;67152;36.266;32.294;2023-05-21T05:57:38;15.93;;;5.78;;
77955;SDS011;67152;36.266;32.294;2023-05-21T06:00:06;17.40;;;5.15;;
77955;SDS011;67152;36.266;32.294;2023-05-21T06:02:35;14.35;;;5.13;;
77955;SDS011;67152;36.266;32.294;2023-05-21T06:05:02;13.38;;;5.80;;
77955;SDS011;67152;36.266;32.294;2023-05-21T06:07:31;15.07;;;5.68;;
77955;SDS011;67152;36.266;32.294;2023-05-21T06:09:58;11.60;;;5.25;;
77955;SDS011;67152;36.266;32.294;2023-05-21T06:17:17;12.45;;;4.80;;
77955;SDS011;67152;36.266;32.294;2023-05-21T06:19:44;15.98;;;5.22;;
77955;SDS011;67152;36.266;32.294;2023-05-21T06:22:11;13.98;;;5.20;;
77955;SDS011;67152;36.266;32.294;2023-05-21T06:24:38;13.85;;;5.65;;
77955;SDS011;67152;36.266;32.294;2023-05-21T06:27:04;18.15;;;5.45;;
77955;SDS011;67152;36.266;32.294;2023-05-21T06:29:31;13.80;;;5.55;;
77955;SDS011;67152;36.266;32.294;2023-05-21T06:31:58;17.30;;;5.00;;
77955;SDS011;67152;36.266;32.294;2023-05-21T06:34:24;11.95;;;4.93;;
77955;SDS011;67152;36.266;32.294;2023-05-21T06:36:51;14.70;;;5.68;;
77955;SDS011;67152;36.266;32.294;2023-05-21T06:39:17;17.85;;;6.20;;
77955;SDS011;67152;36.266;32.294;2023-05-21T06:41:44;12.63;;;4.80;;
77955;SDS011;67152;36.266;32.294;2023-05-21T06:44:31;12.00;;;5.43;;
77955;SDS011;67152;36.266;32.294;2023-05-21T06:46:57;13.60;;;5.88;;
77955;SDS011;67152;36.266;32.294;2023-05-21T06:49:24;12.07;;;5.40;;
77955;SDS011;67152;36.266;32.294;2023-05-21T06:51:51;12.98;;;5.22;;
77955;SDS011;67152;36.266;32.294;2023-05-21T06:54:18;9.48;;;5.20;;
77955;SDS011;67152;36.266;32.294;2023-05-21T06:56:44;15.63;;;5.72;;
77955;SDS011;67152;36.266;32.294;2023-05-21T06:59:11;10.02;;;4.90;;
77955;SDS011;67152;36.266;32.294;2023-05-21T07:01:37;17.27;;;5.97;;
77955;SDS011;67152;36.266;32.294;2023-05-21T07:04:07;18.13;;;5.82;;
77955;SDS011;67152;36.266;32.294;2023-05-21T07:16:22;13.73;;;5.43;;
77955;SDS011;67152;36.266;32.294;2023-05-21T07:18:49;9.35;;;5.18;;
77955;SDS011;67152;36.266;32.294;2023-05-21T07:21:16;16.02;;;5.28;;
77955;SDS011;67152;36.266;32.294;2023-05-21T07:23:44;13.18;;;5.25;;
77955;SDS011;67152;36.266;32.294;2023-05-21T07:28:37;11.90;;;5.13;;
77955;SDS011;67152;36.266;32.294;2023-05-21T07:31:04;17.63;;;5.78;;
77955;SDS011;67152;36.266;32.294;2023-05-21T07:33:31;16.23;;;5.45;;
77955;SDS011;67152;36.266;32.294;2023-05-21T07:35:59;16.83;;;5.85;;
77955;SDS011;67152;36.266;32.294;2023-05-21T07:38:28;15.95;;;6.05;;
77955;SDS011;67152;36.266;32.294;2023-05-21T07:40:55;14.15;;;5.43;;
77955;SDS011;67152;36.266;32.294;2023-05-21T07:45:49;15.40;;;5.70;;
77955;SDS011;67152;36.266;32.294;2023-05-21T07:48:16;17.20;;;6.07;;
77955;SDS011;67152;36.266;32.294;2023-05-21T07:50:43;12.82;;;5.00;;
77955;SDS011;67152;36.266;32.294;2023-05-21T07:53:12;12.90;;;5.35;;
77955;SDS011;67152;36.266;32.294;2023-05-21T07:55:40;15.20;;;5.18;;
77955;SDS011;67152;36.266;32.294;2023-05-21T07:58:13;14.38;;;5.35;;
77955;SDS011;67152;36.266;32.294;2023-05-21T08:00:42;15.75;;;5.68;;
77955;SDS011;67152;36.266;32.294;2023-05-21T08:03:14;15.48;;;5.80;;
77955;SDS011;67152;36.266;32.294;2023-05-21T08:05:42;17.67;;;5.82;;
77955;SDS011;67152;36.266;32.294;2023-05-21T08:08:16;21.83;;;5.38;;
77955;SDS011;67152;36.266;32.294;2023-05-21T08:10:45;17.20;;;5.38;;
77955;SDS011;67152;36.266;32.294;2023-05-21T08:13:13;11.77;;;4.75;;
77955;SDS011;67152;36.266;32.294;2023-05-21T08:15:41;14.27;;;5.25;;
77955;SDS011;67152;36.266;32.294;2023-05-21T08:18:07;13.18;;;5.03;;
77955;SDS011;67152;36.266;32.294;2023-05-21T08:23:00;16.85;;;5.80;;
77955;SDS011;67152;36.266;32.294;2023-05-21T08:27:54;18.75;;;6.20;;
77955;SDS011;67152;36.266;32.294;2023-05-21T08:30:21;12.15;;;5.35;;
77955;SDS011;67152;36.266;32.294;2023-05-21T08:32:47;15.05;;;5.47;;
77955;SDS011;67152;36.266;32.294;2023-05-21T08:40:08;9.88;;;4.88;;
77955;SDS011;67152;36.266;32.294;2023-05-21T08:42:42;15.35;;;5.78;;
77955;SDS011;67152;36.266;32.294;2023-05-21T08:45:11;15.80;;;5.95;;
77955;SDS011;67152;36.266;32.294;2023-05-21T08:47:42;11.63;;;5.35;;
77955;SDS011;67152;36.266;32.294;2023-05-21T08:50:12;37.05;;;11.73;;
77955;SDS011;67152;36.266;32.294;2023-05-21T08:52:40;15.35;;;5.85;;
77955;SDS011;67152;36.266;32.294;2023-05-21T09:00:00;12.52;;;5.72;;
77955;SDS011;67152;36.266;32.294;2023-05-21T09:02:31;10.35;;;5.43;;
77955;SDS011;67152;36.266;32.294;2023-05-21T09:04:59;13.63;;;5.50;;
77955;SDS011;67152;36.266;32.294;2023-05-21T09:07:28;14.93;;;5.57;;
77955;SDS011;67152;36.266;32.294;2023-05-21T09:09:57;14.15;;;4.90;;
77955;SDS011;67152;36.266;32.294;2023-05-21T09:12:28;12.75;;;5.75;;
77955;SDS011;67152;36.266;32.294;2023-05-21T09:14:55;19.73;;;5.60;;
77955;SDS011;67152;36.266;32.294;2023-05-21T09:17:23;12.32;;;5.18;;
77955;SDS011;67152;36.266;32.294;2023-05-21T09:22:40;11.35;;;5.20;;
77955;SDS011;67152;36.266;32.294;2023-05-21T09:25:08;10.07;;;5.53;;
77955;SDS011;67152;36.266;32.294;2023-05-21T09:27:39;14.73;;;5.97;;
77955;SDS011;67152;36.266;32.294;2023-05-21T09:30:09;13.65;;;5.70;;
77955;SDS011;67152;36.266;32.294;2023-05-21T09:32:37;17.20;;;6.30;;
77955;SDS011;67152;36.266;32.294;2023-05-21T09:37:41;15.27;;;5.78;;
77955;SDS011;67152;36.266;32.294;2023-05-21T09:40:16;11.60;;;6.05;;
77955;SDS011;67152;36.266;32.294;2023-05-21T09:42:44;16.73;;;5.60;;
77955;SDS011;67152;36.266;32.294;2023-05-21T09:45:24;16.63;;;5.82;;
77955;SDS011;67152;36.266;32.294;2023-05-21T09:47:52;16.55;;;6.13;;
77955;SDS011;67152;36.266;32.294;2023-05-21T09:50:21;16.50;;;6.50;;
77955;SDS011;67152;36.266;32.294;2023-05-21T09:52:50;15.93;;;5.28;;
77955;SDS011;67152;36.266;32.294;2023-05-21T09:55:24;12.45;;;5.80;;
77955;SDS011;67152;36.266;32.294;2023-05-21T09:57:51;15.07;;;6.53;;
77955;SDS011;67152;36.266;32.294;2023-05-21T10:02:53;12.85;;;5.97;;
77955;SDS011;67152;36.266;32.294;2023-05-21T10:05:22;18.25;;;6.85;;
77955;SDS011;67152;36.266;32.294;2023-05-21T10:07:55;18.90;;;6.20;;
77955;SDS011;67152;36.266;32.294;2023-05-21T10:10:28;21.70;;;7.03;;
77955;SDS011;67152;36.266;32.294;2023-05-21T10:15:30;16.08;;;5.95;;
77955;SDS011;67152;36.266;32.294;2023-05-21T10:18:00;23.52;;;6.75;;
77955;SDS011;67152;36.266;32.294;2023-05-21T10:20:27;12.75;;;6.28;;
77955;SDS011;67152;36.266;32.294;2023-05-21T10:22:54;13.25;;;6.68;;
77955;SDS011;67152;36.266;32.294;2023-05-21T10:25:23;17.92;;;6.45;;
77955;SDS011;67152;36.266;32.294;2023-05-21T10:27:54;13.95;;;5.63;;
77955;SDS011;67152;36.266;32.294;2023-05-21T10:30:21;12.40;;;6.13;;
77955;SDS011;67152;36.266;32.294;2023-05-21T10:32:49;14.27;;;5.57;;
77955;SDS011;67152;36.266;32.294;2023-05-21T10:35:16;23.13;;;5.97;;
77955;SDS011;67152;36.266;32.294;2023-05-21T10:37:43;19.83;;;5.88;;
77955;SDS011;67152;36.266;32.294;2023-05-21T10:40:11;16.48;;;6.22;;
77955;SDS011;67152;36.266;32.294;2023-05-21T10:51:25;21.52;;;5.22;;
77955;SDS011;67152;36.266;32.294;2023-05-21T10:56:53;11.25;;;4.63;;
77955;SDS011;67152;36.266;32.294;2023-05-21T10:59:46;9.85;;;4.00;;
77955;SDS011;67152;36.266;32.294;2023-05-21T11:02:14;9.02;;;4.68;;
77955;SDS011;67152;36.266;32.294;2023-05-21T11:04:43;13.50;;;4.65;;
77955;SDS011;67152;36.266;32.294;2023-05-21T11:07:11;17.90;;;5.32;;
77955;SDS011;67152;36.266;32.294;2023-05-21T11:12:04;15.40;;;5.15;;
77955;SDS011;67152;36.266;32.294;2023-05-21T11:14:40;12.13;;;4.57;;
77955;SDS011;67152;36.266;32.294;2023-05-21T11:19:52;13.68;;;5.22;;
77955;SDS011;67152;36.266;32.294;2023-05-21T11:22:21;9.70;;;5.68;;
77955;SDS011;67152;36.266;32.294;2023-05-21T11:24:52;15.43;;;5.15;;
77955;SDS011;67152;36.266;32.294;2023-05-21T11:27:29;12.80;;;4.70;;
77955;SDS011;67152;36.266;32.294;2023-05-21T11:30:02;12.40;;;4.57;;
77955;SDS011;67152;36.266;32.294;2023-05-21T11:32:43;11.48;;;5.25;;
77955;SDS011;67152;36.266;32.294;2023-05-21T11:38:11;11.93;;;5.13;;
77955;SDS011;67152;36.266;32.294;2023-05-21T11:40:37;13.40;;;5.43;;
77955;SDS011;67152;36.266;32.294;2023-05-21T11:43:21;14.48;;;5.20;;
77955;SDS011;67152;36.266;32.294;2023-05-21T11:45:47;14.30;;;5.00;;
77955;SDS011;67152;36.266;32.294;2023-05-21T11:48:17;11.40;;;4.65;;
77955;SDS011;67152;36.266;32.294;2023-05-21T11:50:46;14.25;;;4.25;;
77955;SDS011;67152;36.266;32.294;2023-05-21T11:53:12;14.68;;;4.22;;
77955;SDS011;67152;36.266;32.294;2023-05-21T11:55:40;34.45;;;4.75;;
77955;SDS011;67152;36.266;32.294;2023-05-21T11:58:08;9.93;;;4.72;;
77955;SDS011;67152;36.266;32.294;2023-05-21T12:00:41;16.60;;;5.00;;
77955;SDS011;67152;36.266;32.294;2023-05-21T12:03:07;7.93;;;4.72;;
77955;SDS011;67152;36.266;32.294;2023-05-21T12:05:47;10.70;;;5.20;;
77955;SDS011;67152;36.266;32.294;2023-05-21T12:08:20;16.20;;;5.68;;
77955;SDS011;67152;36.266;32.294;2023-05-21T12:10:54;14.52;;;5.60;;
77955;SDS011;67152;36.266;32.294;2023-05-21T12:13:24;16.75;;;5.20;;
77955;SDS011;67152;36.266;32.294;2023-05-21T12:15:52;15.32;;;4.60;;
77955;SDS011;67152;36.266;32.294;2023-05-21T12:18:19;9.20;;;4.95;;
77955;SDS011;67152;36.266;32.294;2023-05-21T12:20:46;15.65;;;5.55;;
77955;SDS011;67152;36.266;32.294;2023-05-21T12:23:22;13.38;;;6.60;;
77955;SDS011;67152;36.266;32.294;2023-05-21T12:25:49;9.88;;;5.72;;
77955;SDS011;67152;36.266;32.294;2023-05-21T12:28:17;12.38;;;5.40;;
77955;SDS011;67152;36.266;32.294;2023-05-21T12:30:43;14.00;;;5.93;;
77955;SDS011;67152;36.266;32.294;2023-05-21T12:33:10;12.70;;;5.60;;
77955;SDS011;67152;36.266;32.294;2023-05-21T12:35:37;12.57;;;6.47;;
77955;SDS011;67152;36.266;32.294;2023-05-21T12:38:03;15.30;;;6.43;;
77955;SDS011;67152;36.266;32.294;2023-05-21T12:40:34;8.68;;;5.97;;
77955;SDS011;67152;36.266;32.294;2023-05-21T12:43:05;13.30;;;6.03;;
77955;SDS011;67152;36.266;32.294;2023-05-21T12:45:31;17.83;;;5.93;;
77955;SDS011;67152;36.266;32.294;2023-05-21T12:48:02;10.30;;;6.10;;
77955;SDS011;67152;36.266;32.294;2023-05-21T12:50:28;25.88;;;5.95;;
77955;SDS011;67152;36.266;32.294;2023-05-21T12:52:55;14.43;;;5.40;;
77955;SDS011;67152;36.266;32.294;2023-05-21T12:55:23;13.55;;;5.80;;
77955;SDS011;67152;36.266;32.294;2023-05-21T12:58:00;14.68;;;6.18;;
77955;SDS011;67152;36.266;32.294;2023-05-21T13:00:33;11.95;;;6.45;;
77955;SDS011;67152;36.266;32.294;2023-05-21T13:03:01;17.60;;;7.50;;
77955;SDS011;67152;36.266;32.294;2023-05-21T13:05:29;11.57;;;6.45;;
77955;SDS011;67152;36.266;32.294;2023-05-21T13:07:55;13.82;;;5.25;;
77955;SDS011;67152;36.266;32.294;2023-05-21T13:10:22;14.27;;;5.60;;
77955;SDS011;67152;36.266;32.294;2023-05-21T13:12:49;13.32;;;4.88;;
77955;SDS011;67152;36.266;32.294;2023-05-21T13:15:15;14.75;;;5.22;;
77955;SDS011;67152;36.266;32.294;2023-05-21T13:17:42;15.82;;;5.15;;
77955;SDS011;67152;36.266;32.294;2023-05-21T13:20:10;13.90;;;5.22;;
77955;SDS011;67152;36.266;32.294;2023-05-21T13:22:40;13.48;;;5.10;;
77955;SDS011;67152;36.266;32.294;2023-05-21T13:25:08;23.50;;;5.57;;
77955;SDS011;67152;36.266;32.294;2023-05-21T13:27:36;18.20;;;5.50;;
77955;SDS011;67152;36.266;32.294;2023-05-21T13:30:06;12.98;;;5.35;;
77955;SDS011;67152;36.266;32.294;2023-05-21T13:32:34;12.18;;;5.63;;
77955;SDS011;67152;36.266;32.294;2023-05-21T13:35:01;11.32;;;4.95;;
77955;SDS011;67152;36.266;32.294;2023-05-21T13:37:31;17.20;;;5.25;;
77955;SDS011;67152;36.266;32.294;2023-05-21T13:40:23;14.27;;;4.88;;
77955;SDS011;67152;36.266;32.294;2023-05-21T13:42:50;14.60;;;5.35;;
77955;SDS011;67152;36.266;32.294;2023-05-21T13:47:45;9.70;;;4.80;;
77955;SDS011;67152;36.266;32.294;2023-05-21T13:50:12;10.13;;;5.22;;
77955;SDS011;67152;36.266;32.294;2023-05-21T13:52:39;10.98;;;5.05;;
77955;SDS011;67152;36.266;32.294;2023-05-21T13:55:06;11.07;;;4.90;;
77955;SDS011;67152;36.266;32.294;2023-05-21T13:57:34;9.48;;;4.57;;
77955;SDS011;67152;36.266;32.294;2023-05-21T14:02:31;10.52;;;5.53;;
77955;SDS011;67152;36.266;32.294;2023-05-21T14:04:59;10.15;;;5.00;;
77955;SDS011;67152;36.266;32.294;2023-05-21T14:07:26;13.55;;;5.82;;
77955;SDS011;67152;36.266;32.294;2023-05-21T14:10:13;12.40;;;5.00;;
77955;SDS011;67152;36.266;32.294;2023-05-21T14:12:40;16.58;;;5.82;;
77955;SDS011;67152;36.266;32.294;2023-05-21T14:15:08;9.13;;;5.55;;
77955;SDS011;67152;36.266;32.294;2023-05-21T14:17:55;11.65;;;5.43;;
77955;SDS011;67152;36.266;32.294;2023-05-21T14:20:22;15.25;;;5.88;;
77955;SDS011;67152;36.266;32.294;2023-05-21T14:22:49;14.00;;;5.80;;
77955;SDS011;67152;36.266;32.294;2023-05-21T14:25:15;9.85;;;5.63;;
77955;SDS011;67152;36.266;32.294;2023-05-21T14:27:42;10.07;;;5.70;;
77955;SDS011;67152;36.266;32.294;2023-05-21T14:30:09;14.10;;;5.38;;
77955;SDS011;67152;36.266;32.294;2023-05-21T14:32:36;10.38;;;5.45;;
77955;SDS011;67152;36.266;32.294;2023-05-21T14:37:30;14.95;;;5.03;;
77955;SDS011;67152;36.266;32.294;2023-05-21T14:39:57;10.05;;;5.57;;
77955;SDS011;67152;36.266;32.294;2023-05-21T14:42:26;11.85;;;5.25;;
77955;SDS011;67152;36.266;32.294;2023-05-21T14:44:53;12.40;;;5.57;;
77955;SDS011;67152;36.266;32.294;2023-05-21T14:47:20;14.80;;;5.85;;
77955;SDS011;67152;36.266;32.294;2023-05-21T14:49:47;18.35;;;6.32;;
77955;SDS011;67152;36.266;32.294;2023-05-21T14:52:14;9.95;;;6.07;;
77955;SDS011;67152;36.266;32.294;2023-05-21T14:54:40;11.60;;;6.07;;
77955;SDS011;67152;36.266;32.294;2023-05-21T14:57:08;8.20;;;5.07;;
77955;SDS011;67152;36.266;32.294;2023-05-21T14:59:54;11.05;;;6.18;;
77955;SDS011;67152;36.266;32.294;2023-05-21T15:02:22;30.00;;;6.03;;
77955;SDS011;67152;36.266;32.294;2023-05-21T15:05:30;20.77;;;5.97;;
77955;SDS011;67152;36.266;32.294;2023-05-21T15:07:57;14.75;;;5.45;;
77955;SDS011;67152;36.266;32.294;2023-05-21T15:10:24;11.10;;;5.18;;
77955;SDS011;67152;36.266;32.294;2023-05-21T15:12:51;14.63;;;5.43;;
77955;SDS011;67152;36.266;32.294;2023-05-21T15:15:19;16.52;;;5.75;;
77955;SDS011;67152;36.266;32.294;2023-05-21T15:20:13;9.90;;;5.05;;
77955;SDS011;67152;36.266;32.294;2023-05-21T15:23:01;12.43;;;5.07;;
77955;SDS011;67152;36.266;32.294;2023-05-21T15:25:28;16.85;;;5.55;;
77955;SDS011;67152;36.266;32.294;2023-05-21T15:27:55;17.08;;;5.43;;
77955;SDS011;67152;36.266;32.294;2023-05-21T15:30:21;14.15;;;6.22;;
77955;SDS011;67152;36.266;32.294;2023-05-21T15:35:15;12.48;;;5.93;;
77955;SDS011;67152;36.266;32.294;2023-05-21T15:37:44;12.33;;;5.10;;
77955;SDS011;67152;36.266;32.294;2023-05-21T15:40:11;14.93;;;5.45;;
77955;SDS011;67152;36.266;32.294;2023-05-21T15:42:38;9.38;;;5.18;;
77955;SDS011;67152;36.266;32.294;2023-05-21T15:45:05;13.30;;;5.27;;
77955;SDS011;67152;36.266;32.294;2023-05-21T15:47:31;11.38;;;5.40;;
77955;SDS011;67152;36.266;32.294;2023-05-21T15:49:59;13.05;;;5.15;;
77955;SDS011;67152;36.266;32.294;2023-05-21T15:52:26;15.05;;;5.20;;
77955;SDS011;67152;36.266;32.294;2023-05-21T15:54:53;14.38;;;5.22;;
77955;SDS011;67152;36.266;32.294;2023-05-21T15:59:46;11.70;;;5.78;;
77955;SDS011;67152;36.266;32.294;2023-05-21T16:02:13;10.93;;;5.20;;
77955;SDS011;67152;36.266;32.294;2023-05-21T16:04:39;13.45;;;5.55;;
77955;SDS011;67152;36.266;32.294;2023-05-21T16:07:06;12.50;;;4.93;;
77955;SDS011;67152;36.266;32.294;2023-05-21T16:09:33;15.57;;;5.45;;
77955;SDS011;67152;36.266;32.294;2023-05-21T16:12:02;14.77;;;5.63;;
77955;SDS011;67152;36.266;32.294;2023-05-21T16:14:29;22.67;;;6.10;;
77955;SDS011;67152;36.266;32.294;2023-05-21T16:16:57;13.68;;;5.53;;
77955;SDS011;67152;36.266;32.294;2023-05-21T16:19:23;19.80;;;6.93;;